TOM1JD EGKK-LEIB
Flight info
| Callsign | TOM1JD |
|---|---|
| Flight time | 1h 59m |
| Altitude | 35000 |
| Route | SFD Y47 DRAKE L151 SITET UN859 SOPIL DCT BALAN DCT EVPOK DCT NARAK DCT GAI DCT LOMRA DCT ROCAN DCT PUMAL DCT XEPLA DCT BCN Z174 CORDA |
| Aircraft | B738/M-SDE2E3FGHIRWXY/LB1 |
Departure
| Time | 2026-05-05 13:26 |
|---|---|
| Airport | London Gatwick Airport (EGKK) |
Arrival
| Time | 2026-05-05 15:26 |
|---|---|
| Airport | Ibiza Airport (LEIB) |
| Time | Latitude | Longitude | Altitude | Speed | Heading |
|---|---|---|---|---|---|
| 2026-05-05 13:04 | 51.15861 | -0.17943 | 203 ft | 0 kts | 78° |
| 2026-05-05 13:09 | 51.15859 | -0.17956 | 214 ft | 4 kts | 78° |
| 2026-05-05 13:09 | 51.15853 | -0.17998 | 203 ft | 4 kts | 78° |
| 2026-05-05 13:10 | 51.15849 | -0.18032 | 215 ft | 4 kts | 83° |
| 2026-05-05 13:10 | 51.15851 | -0.18070 | 212 ft | 4 kts | 129° |
| 2026-05-05 13:10 | 51.15865 | -0.18087 | 214 ft | 0 kts | 167° |
| 2026-05-05 13:14 | 51.15861 | -0.17937 | 203 ft | 0 kts | 78° |
| 2026-05-05 13:16 | 51.15860 | -0.17947 | 203 ft | 4 kts | 78° |
| 2026-05-05 13:17 | 51.15855 | -0.17989 | 203 ft | 4 kts | 78° |
| 2026-05-05 13:17 | 51.15850 | -0.18023 | 212 ft | 4 kts | 79° |
| 2026-05-05 13:17 | 51.15849 | -0.18063 | 215 ft | 4 kts | 116° |
| 2026-05-05 13:17 | 51.15864 | -0.18086 | 214 ft | 2 kts | 167° |
| 2026-05-05 13:18 | 51.15865 | -0.18087 | 214 ft | 0 kts | 167° |
| 2026-05-05 13:19 | 51.15854 | -0.18083 | 210 ft | 5 kts | 167° |
| 2026-05-05 13:19 | 51.15787 | -0.18058 | 206 ft | 15 kts | 167° |
| 2026-05-05 13:20 | 51.15695 | -0.18069 | 208 ft | 14 kts | 225° |
| 2026-05-05 13:20 | 51.15662 | -0.18222 | 207 ft | 17 kts | 259° |
| 2026-05-05 13:20 | 51.15639 | -0.18411 | 203 ft | 17 kts | 257° |
| 2026-05-05 13:20 | 51.15609 | -0.18618 | 203 ft | 23 kts | 257° |
| 2026-05-05 13:21 | 51.15549 | -0.18817 | 210 ft | 17 kts | 185° |
| 2026-05-05 13:21 | 51.15434 | -0.18785 | 203 ft | 17 kts | 168° |
| 2026-05-05 13:21 | 51.15307 | -0.18740 | 203 ft | 20 kts | 167° |
| 2026-05-05 13:21 | 51.15173 | -0.18706 | 209 ft | 19 kts | 189° |
| 2026-05-05 13:22 | 51.15110 | -0.18877 | 206 ft | 20 kts | 258° |
| 2026-05-05 13:22 | 51.15077 | -0.19114 | 207 ft | 24 kts | 257° |
| 2026-05-05 13:22 | 51.15039 | -0.19388 | 211 ft | 26 kts | 257° |
| 2026-05-05 13:22 | 51.15002 | -0.19664 | 209 ft | 26 kts | 258° |
| 2026-05-05 13:23 | 51.14959 | -0.19968 | 203 ft | 30 kts | 257° |
| 2026-05-05 13:23 | 51.14912 | -0.20313 | 212 ft | 33 kts | 258° |
| 2026-05-05 13:23 | 51.14870 | -0.20574 | 212 ft | 11 kts | 240° |
| 2026-05-05 13:23 | 51.14807 | -0.20668 | 208 ft | 15 kts | 212° |
| 2026-05-05 13:24 | 51.14728 | -0.20719 | 210 ft | 8 kts | 182° |
| 2026-05-05 13:24 | 51.14708 | -0.20715 | 207 ft | 0 kts | 169° |
| 2026-05-05 13:24 | 51.14706 | -0.20715 | 207 ft | 1 kts | 169° |
| 2026-05-05 13:25 | 51.14650 | -0.20695 | 208 ft | 16 kts | 167° |
| 2026-05-05 13:25 | 51.14601 | -0.20582 | 204 ft | 0 kts | 76° |
| 2026-05-05 13:25 | 51.14604 | -0.20565 | 204 ft | 8 kts | 76° |
| 2026-05-05 13:25 | 51.14663 | -0.20136 | 207 ft | 75 kts | 77° |
| 2026-05-05 13:26 | 51.14821 | -0.18987 | 210 ft | 134 kts | 77° |
| 2026-05-05 13:26 | 51.15041 | -0.17361 | 468 ft | 160 kts | 78° |
| 2026-05-05 13:26 | 51.15254 | -0.15666 | 1359 ft | 150 kts | 77° |
| 2026-05-05 13:26 | 51.15432 | -0.14038 | 2080 ft | 156 kts | 74° |
| 2026-05-05 13:27 | 51.15711 | -0.12188 | 2392 ft | 186 kts | 73° |
| 2026-05-05 13:27 | 51.16042 | -0.10039 | 2599 ft | 211 kts | 75° |
| 2026-05-05 13:27 | 51.15950 | -0.07652 | 3061 ft | 225 kts | 111° |
| 2026-05-05 13:27 | 51.14940 | -0.05709 | 3446 ft | 248 kts | 144° |
| 2026-05-05 13:28 | 51.13252 | -0.04711 | 3903 ft | 267 kts | 166° |
| 2026-05-05 13:28 | 51.11427 | -0.04111 | 4725 ft | 270 kts | 166° |
| 2026-05-05 13:28 | 51.09576 | -0.03529 | 5497 ft | 272 kts | 167° |
| 2026-05-05 13:28 | 51.07753 | -0.02810 | 6009 ft | 271 kts | 162° |
| 2026-05-05 13:29 | 51.05927 | -0.01924 | 6740 ft | 276 kts | 162° |
| 2026-05-05 13:29 | 51.04082 | -0.01023 | 7565 ft | 278 kts | 162° |
| 2026-05-05 13:29 | 51.02212 | -0.00115 | 8331 ft | 283 kts | 162° |
| 2026-05-05 13:29 | 51.00313 | 0.00793 | 9177 ft | 288 kts | 162° |
| 2026-05-05 13:30 | 50.98383 | 0.01708 | 10034 ft | 291 kts | 163° |
| 2026-05-05 13:30 | 50.96434 | 0.02629 | 10842 ft | 293 kts | 162° |
| 2026-05-05 13:30 | 50.94469 | 0.03556 | 11641 ft | 297 kts | 162° |
| 2026-05-05 13:30 | 50.92469 | 0.04500 | 12430 ft | 302 kts | 162° |
| 2026-05-05 13:31 | 50.90441 | 0.05455 | 13282 ft | 305 kts | 161° |
| 2026-05-05 13:31 | 50.88396 | 0.06418 | 14121 ft | 309 kts | 162° |
| 2026-05-05 13:31 | 50.86324 | 0.07392 | 14945 ft | 312 kts | 161° |
| 2026-05-05 13:31 | 50.84237 | 0.08375 | 15766 ft | 315 kts | 162° |
| 2026-05-05 13:32 | 50.82132 | 0.09366 | 16625 ft | 318 kts | 162° |
| 2026-05-05 13:32 | 50.79998 | 0.10369 | 17441 ft | 322 kts | 162° |
| 2026-05-05 13:32 | 50.77838 | 0.11384 | 18242 ft | 325 kts | 162° |
| 2026-05-05 13:32 | 50.75596 | 0.11964 | 18894 ft | 333 kts | 182° |
| 2026-05-05 13:33 | 50.73237 | 0.11370 | 19110 ft | 354 kts | 192° |
| 2026-05-05 13:33 | 50.70768 | 0.10458 | 19282 ft | 374 kts | 193° |
| 2026-05-05 13:33 | 50.68193 | 0.09457 | 19679 ft | 386 kts | 193° |
| 2026-05-05 13:33 | 50.65578 | 0.08449 | 20358 ft | 388 kts | 193° |
| 2026-05-05 13:34 | 50.62941 | 0.07455 | 21069 ft | 390 kts | 193° |
| 2026-05-05 13:34 | 50.60281 | 0.06474 | 21695 ft | 395 kts | 192° |
| 2026-05-05 13:34 | 50.57592 | 0.05496 | 22323 ft | 399 kts | 192° |
| 2026-05-05 13:34 | 50.54877 | 0.04516 | 22965 ft | 402 kts | 192° |
| 2026-05-05 13:35 | 50.52142 | 0.03532 | 23591 ft | 405 kts | 192° |
| 2026-05-05 13:35 | 50.49383 | 0.02539 | 24136 ft | 407 kts | 192° |
| 2026-05-05 13:35 | 50.46623 | 0.01548 | 24726 ft | 407 kts | 192° |
| 2026-05-05 13:35 | 50.43860 | 0.00558 | 25322 ft | 407 kts | 192° |
| 2026-05-05 13:36 | 50.41088 | -0.00432 | 25854 ft | 409 kts | 192° |
| 2026-05-05 13:36 | 50.38310 | -0.01421 | 26420 ft | 410 kts | 192° |
| 2026-05-05 13:36 | 50.35525 | -0.02411 | 26957 ft | 411 kts | 192° |
| 2026-05-05 13:36 | 50.32718 | -0.03409 | 27403 ft | 415 kts | 192° |
| 2026-05-05 13:37 | 50.29894 | -0.04412 | 27859 ft | 417 kts | 192° |
| 2026-05-05 13:37 | 50.27101 | -0.05403 | 28354 ft | 418 kts | 192° |
| 2026-05-05 13:37 | 50.24251 | -0.06353 | 28853 ft | 419 kts | 187° |
| 2026-05-05 13:37 | 50.21344 | -0.06509 | 29305 ft | 419 kts | 174° |
| 2026-05-05 13:38 | 50.18464 | -0.05762 | 29804 ft | 419 kts | 165° |
| 2026-05-05 13:38 | 50.15745 | -0.04180 | 30375 ft | 416 kts | 155° |
| 2026-05-05 13:38 | 50.13134 | -0.02272 | 30908 ft | 413 kts | 155° |
| 2026-05-05 13:38 | 50.10519 | -0.00397 | 31297 ft | 414 kts | 157° |
| 2026-05-05 13:39 | 50.07796 | 0.01047 | 31681 ft | 415 kts | 165° |
| 2026-05-05 13:39 | 50.05000 | 0.02133 | 32167 ft | 413 kts | 166° |
| 2026-05-05 13:39 | 50.02212 | 0.03174 | 32630 ft | 412 kts | 167° |
| 2026-05-05 13:39 | 49.99421 | 0.04218 | 33045 ft | 412 kts | 167° |
| 2026-05-05 13:40 | 49.96640 | 0.05274 | 33458 ft | 412 kts | 166° |
| 2026-05-05 13:40 | 49.93867 | 0.06342 | 33975 ft | 408 kts | 166° |
| 2026-05-05 13:40 | 49.91116 | 0.07412 | 34385 ft | 407 kts | 166° |
| 2026-05-05 13:40 | 49.88365 | 0.08486 | 34619 ft | 409 kts | 166° |
| 2026-05-05 13:41 | 49.85590 | 0.09570 | 34865 ft | 411 kts | 166° |
| 2026-05-05 13:41 | 49.82807 | 0.10657 | 34904 ft | 417 kts | 166° |
| 2026-05-05 13:41 | 49.77183 | 0.12849 | 34907 ft | 414 kts | 166° |
| 2026-05-05 13:42 | 49.71680 | 0.14988 | 34920 ft | 408 kts | 166° |
| 2026-05-05 13:42 | 49.66178 | 0.17137 | 34914 ft | 408 kts | 165° |
| 2026-05-05 13:43 | 49.60662 | 0.19376 | 34916 ft | 407 kts | 165° |
| 2026-05-05 13:43 | 49.55225 | 0.21590 | 34914 ft | 407 kts | 165° |
| 2026-05-05 13:44 | 49.49749 | 0.23805 | 34915 ft | 407 kts | 165° |
| 2026-05-05 13:44 | 49.44264 | 0.26016 | 34912 ft | 408 kts | 165° |
| 2026-05-05 13:45 | 49.39660 | 0.27867 | 34911 ft | 408 kts | 165° |
| 2026-05-05 13:45 | 49.34164 | 0.30072 | 34916 ft | 409 kts | 165° |
| 2026-05-05 13:46 | 49.28693 | 0.32283 | 34914 ft | 409 kts | 164° |
| 2026-05-05 13:46 | 49.23193 | 0.34602 | 34904 ft | 410 kts | 163° |
| 2026-05-05 13:47 | 49.17695 | 0.36927 | 34882 ft | 410 kts | 163° |
| 2026-05-05 13:47 | 49.12175 | 0.39247 | 34889 ft | 416 kts | 163° |
| 2026-05-05 13:48 | 49.06505 | 0.41620 | 34893 ft | 429 kts | 163° |
| 2026-05-05 13:48 | 49.00662 | 0.44057 | 34871 ft | 441 kts | 163° |
| 2026-05-05 13:49 | 48.94687 | 0.46542 | 34871 ft | 447 kts | 163° |
| 2026-05-05 13:49 | 48.88665 | 0.49041 | 34871 ft | 449 kts | 163° |
| 2026-05-05 13:50 | 48.82631 | 0.51540 | 34870 ft | 450 kts | 163° |
| 2026-05-05 13:50 | 48.76593 | 0.54011 | 34862 ft | 449 kts | 164° |
| 2026-05-05 13:51 | 48.70545 | 0.56369 | 34861 ft | 448 kts | 164° |
| 2026-05-05 13:51 | 48.64500 | 0.58712 | 34868 ft | 448 kts | 164° |
| 2026-05-05 13:52 | 48.58464 | 0.61062 | 34854 ft | 448 kts | 164° |
| 2026-05-05 13:52 | 48.52438 | 0.63406 | 34854 ft | 447 kts | 164° |
| 2026-05-05 13:53 | 48.46469 | 0.65801 | 34842 ft | 447 kts | 163° |
| 2026-05-05 13:53 | 48.40474 | 0.68255 | 34845 ft | 447 kts | 163° |
| 2026-05-05 13:54 | 48.34474 | 0.70694 | 34862 ft | 447 kts | 163° |
| 2026-05-05 13:54 | 48.28454 | 0.73127 | 34843 ft | 448 kts | 163° |
| 2026-05-05 13:55 | 48.22439 | 0.75540 | 34841 ft | 448 kts | 164° |
| 2026-05-05 13:55 | 48.16406 | 0.77913 | 34830 ft | 448 kts | 164° |
| 2026-05-05 13:56 | 48.10379 | 0.80275 | 34827 ft | 448 kts | 164° |
| 2026-05-05 13:56 | 48.04341 | 0.82642 | 34834 ft | 448 kts | 164° |
| 2026-05-05 13:57 | 47.98301 | 0.85006 | 34823 ft | 449 kts | 164° |
| 2026-05-05 13:57 | 47.92254 | 0.87368 | 34829 ft | 449 kts | 164° |
| 2026-05-05 13:58 | 47.86205 | 0.89725 | 34827 ft | 450 kts | 164° |
| 2026-05-05 13:58 | 47.80134 | 0.92081 | 34825 ft | 450 kts | 164° |
| 2026-05-05 13:59 | 47.71067 | 0.95585 | 34827 ft | 452 kts | 165° |
| 2026-05-05 14:00 | 47.61939 | 0.99101 | 34848 ft | 452 kts | 165° |
| 2026-05-05 14:00 | 47.55824 | 1.01451 | 34824 ft | 454 kts | 165° |
| 2026-05-05 14:01 | 47.49710 | 1.03796 | 34835 ft | 453 kts | 165° |
| 2026-05-05 14:01 | 47.43582 | 1.06037 | 34822 ft | 453 kts | 170° |
| 2026-05-05 14:02 | 47.37295 | 1.06423 | 34838 ft | 454 kts | 181° |
| 2026-05-05 14:02 | 47.30970 | 1.06176 | 34836 ft | 455 kts | 180° |
| 2026-05-05 14:03 | 47.24646 | 1.05988 | 34818 ft | 454 kts | 180° |
| 2026-05-05 14:03 | 47.18344 | 1.05844 | 34830 ft | 452 kts | 180° |
| 2026-05-05 14:04 | 47.12075 | 1.05709 | 34835 ft | 450 kts | 180° |
| 2026-05-05 14:04 | 47.05809 | 1.05571 | 34836 ft | 450 kts | 180° |
| 2026-05-05 14:05 | 46.99556 | 1.05403 | 34839 ft | 449 kts | 181° |
| 2026-05-05 14:05 | 46.93301 | 1.05123 | 34833 ft | 450 kts | 181° |
| 2026-05-05 14:06 | 46.87042 | 1.04830 | 34837 ft | 450 kts | 181° |
| 2026-05-05 14:06 | 46.80774 | 1.04552 | 34832 ft | 451 kts | 181° |
| 2026-05-05 14:07 | 46.74505 | 1.04282 | 34847 ft | 450 kts | 181° |
| 2026-05-05 14:07 | 46.68245 | 1.04013 | 34838 ft | 451 kts | 181° |
| 2026-05-05 14:08 | 46.61963 | 1.03744 | 34845 ft | 451 kts | 181° |
| 2026-05-05 14:08 | 46.55726 | 1.03476 | 34846 ft | 452 kts | 181° |
| 2026-05-05 14:09 | 46.49410 | 1.03883 | 34853 ft | 453 kts | 169° |
| 2026-05-05 14:09 | 46.43311 | 1.05951 | 34854 ft | 453 kts | 167° |
| 2026-05-05 14:10 | 46.37178 | 1.08086 | 34858 ft | 454 kts | 167° |
| 2026-05-05 14:10 | 46.31032 | 1.10171 | 34865 ft | 453 kts | 167° |
| 2026-05-05 14:11 | 46.24883 | 1.12222 | 34877 ft | 453 kts | 168° |
| 2026-05-05 14:11 | 46.18733 | 1.14261 | 34874 ft | 454 kts | 168° |
| 2026-05-05 14:12 | 46.12571 | 1.16300 | 34889 ft | 454 kts | 168° |
| 2026-05-05 14:12 | 46.06412 | 1.18334 | 34903 ft | 454 kts | 168° |
| 2026-05-05 14:13 | 46.00254 | 1.20364 | 34901 ft | 454 kts | 168° |
| 2026-05-05 14:13 | 45.94097 | 1.22388 | 34909 ft | 454 kts | 168° |
| 2026-05-05 14:14 | 45.87929 | 1.24412 | 34913 ft | 455 kts | 168° |
| 2026-05-05 14:14 | 45.81757 | 1.26433 | 34908 ft | 455 kts | 168° |
| 2026-05-05 14:15 | 45.75578 | 1.28451 | 34915 ft | 456 kts | 169° |
| 2026-05-05 14:15 | 45.69397 | 1.30466 | 34908 ft | 456 kts | 169° |
| 2026-05-05 14:16 | 45.63210 | 1.32478 | 34911 ft | 456 kts | 169° |
| 2026-05-05 14:16 | 45.57018 | 1.34487 | 34900 ft | 456 kts | 169° |
| 2026-05-05 14:17 | 45.50845 | 1.36486 | 34910 ft | 456 kts | 169° |
| 2026-05-05 14:17 | 45.44646 | 1.38488 | 34911 ft | 456 kts | 169° |
| 2026-05-05 14:18 | 45.38525 | 1.40460 | 34912 ft | 456 kts | 169° |
| 2026-05-05 14:18 | 45.32336 | 1.42450 | 34922 ft | 456 kts | 169° |
| 2026-05-05 14:19 | 45.26146 | 1.44437 | 34938 ft | 456 kts | 169° |
| 2026-05-05 14:19 | 45.19949 | 1.46421 | 34931 ft | 456 kts | 170° |
| 2026-05-05 14:20 | 45.13754 | 1.48402 | 34940 ft | 456 kts | 170° |
| 2026-05-05 14:20 | 45.07574 | 1.50372 | 34941 ft | 455 kts | 170° |
| 2026-05-05 14:21 | 45.01387 | 1.52341 | 34938 ft | 455 kts | 170° |
| 2026-05-05 14:21 | 44.95216 | 1.54300 | 34908 ft | 454 kts | 171° |
| 2026-05-05 14:22 | 44.89059 | 1.56251 | 34920 ft | 453 kts | 171° |
| 2026-05-05 14:22 | 44.82914 | 1.58192 | 34927 ft | 452 kts | 171° |
| 2026-05-05 14:23 | 44.76763 | 1.60132 | 34921 ft | 453 kts | 171° |
| 2026-05-05 14:23 | 44.70625 | 1.62063 | 34917 ft | 452 kts | 171° |
| 2026-05-05 14:24 | 44.64481 | 1.63993 | 34923 ft | 452 kts | 171° |
| 2026-05-05 14:24 | 44.58342 | 1.65916 | 34916 ft | 452 kts | 171° |
| 2026-05-05 14:25 | 44.52218 | 1.67831 | 34925 ft | 451 kts | 171° |
| 2026-05-05 14:25 | 44.46092 | 1.69742 | 34931 ft | 450 kts | 171° |
| 2026-05-05 14:26 | 44.39975 | 1.71647 | 34912 ft | 450 kts | 171° |
| 2026-05-05 14:26 | 44.33901 | 1.73535 | 34922 ft | 449 kts | 171° |
| 2026-05-05 14:27 | 44.27795 | 1.75348 | 34923 ft | 448 kts | 173° |
| 2026-05-05 14:27 | 44.21654 | 1.76710 | 34921 ft | 447 kts | 175° |
| 2026-05-05 14:28 | 44.15509 | 1.78002 | 34925 ft | 446 kts | 175° |
| 2026-05-05 14:28 | 44.09375 | 1.79332 | 34923 ft | 446 kts | 175° |
| 2026-05-05 14:29 | 44.03231 | 1.80683 | 34922 ft | 446 kts | 175° |
| 2026-05-05 14:29 | 43.97101 | 1.82028 | 34912 ft | 446 kts | 175° |
| 2026-05-05 14:30 | 43.90965 | 1.82993 | 34927 ft | 442 kts | 180° |
| 2026-05-05 14:30 | 43.84826 | 1.83519 | 34925 ft | 442 kts | 180° |
| 2026-05-05 14:31 | 43.79719 | 1.83952 | 34915 ft | 442 kts | 181° |
| 2026-05-05 14:31 | 43.73588 | 1.84521 | 34929 ft | 441 kts | 180° |
| 2026-05-05 14:32 | 43.67467 | 1.85112 | 34927 ft | 441 kts | 180° |
| 2026-05-05 14:32 | 43.61341 | 1.85707 | 34913 ft | 441 kts | 180° |
| 2026-05-05 14:33 | 43.55235 | 1.86298 | 34929 ft | 440 kts | 181° |
| 2026-05-05 14:33 | 43.49135 | 1.86886 | 34923 ft | 439 kts | 181° |
| 2026-05-05 14:34 | 43.43034 | 1.87472 | 34927 ft | 440 kts | 181° |
| 2026-05-05 14:34 | 43.36938 | 1.88058 | 34931 ft | 438 kts | 181° |
| 2026-05-05 14:35 | 43.30866 | 1.88640 | 34917 ft | 437 kts | 181° |
| 2026-05-05 14:35 | 43.24801 | 1.89224 | 34924 ft | 436 kts | 181° |
| 2026-05-05 14:36 | 43.18762 | 1.89804 | 34919 ft | 435 kts | 182° |
| 2026-05-05 14:36 | 43.12732 | 1.90383 | 34917 ft | 433 kts | 182° |
| 2026-05-05 14:37 | 43.06731 | 1.90957 | 34885 ft | 432 kts | 182° |
| 2026-05-05 14:37 | 43.00768 | 1.91527 | 34901 ft | 428 kts | 182° |
| 2026-05-05 14:38 | 42.94874 | 1.92091 | 34909 ft | 423 kts | 183° |
| 2026-05-05 14:38 | 42.89026 | 1.92645 | 34912 ft | 421 kts | 183° |
| 2026-05-05 14:39 | 42.83181 | 1.93199 | 34917 ft | 420 kts | 183° |
| 2026-05-05 14:39 | 42.77393 | 1.93747 | 34909 ft | 419 kts | 183° |
| 2026-05-05 14:40 | 42.71585 | 1.94296 | 34911 ft | 419 kts | 183° |
| 2026-05-05 14:40 | 42.65775 | 1.94947 | 34880 ft | 421 kts | 179° |
| 2026-05-05 14:41 | 42.59968 | 1.96122 | 34923 ft | 423 kts | 178° |
| 2026-05-05 14:41 | 42.54138 | 1.97321 | 34899 ft | 424 kts | 179° |
| 2026-05-05 14:42 | 42.48306 | 1.98493 | 34901 ft | 425 kts | 179° |
| 2026-05-05 14:42 | 42.42461 | 1.99656 | 34898 ft | 424 kts | 179° |
| 2026-05-05 14:43 | 42.36619 | 2.00805 | 34880 ft | 422 kts | 181° |
| 2026-05-05 14:43 | 42.30839 | 2.01447 | 34882 ft | 418 kts | 184° |
| 2026-05-05 14:44 | 42.25036 | 2.01960 | 34894 ft | 418 kts | 184° |
| 2026-05-05 14:44 | 42.19227 | 2.02489 | 34895 ft | 418 kts | 183° |
| 2026-05-05 14:45 | 42.13425 | 2.03038 | 34889 ft | 418 kts | 183° |
| 2026-05-05 14:45 | 42.07621 | 2.03594 | 34899 ft | 418 kts | 183° |
| 2026-05-05 14:46 | 42.01805 | 2.04151 | 34905 ft | 419 kts | 183° |
| 2026-05-05 14:46 | 41.95985 | 2.04707 | 34865 ft | 420 kts | 183° |
| 2026-05-05 14:47 | 41.90159 | 2.05263 | 34901 ft | 420 kts | 183° |
| 2026-05-05 14:47 | 41.84328 | 2.05818 | 34905 ft | 420 kts | 183° |
| 2026-05-05 14:48 | 41.78501 | 2.06371 | 34905 ft | 420 kts | 183° |
| 2026-05-05 14:48 | 41.72682 | 2.06923 | 34893 ft | 419 kts | 184° |
| 2026-05-05 14:49 | 41.66871 | 2.07471 | 34917 ft | 419 kts | 184° |
| 2026-05-05 14:49 | 41.61056 | 2.08008 | 34914 ft | 419 kts | 184° |
| 2026-05-05 14:50 | 41.55238 | 2.08543 | 34908 ft | 419 kts | 184° |
| 2026-05-05 14:50 | 41.49462 | 2.09077 | 34896 ft | 418 kts | 184° |
| 2026-05-05 14:51 | 41.43657 | 2.09610 | 34914 ft | 418 kts | 184° |
| 2026-05-05 14:51 | 41.37852 | 2.10144 | 34904 ft | 418 kts | 184° |
| 2026-05-05 14:52 | 41.32049 | 2.10676 | 34880 ft | 418 kts | 185° |
| 2026-05-05 14:52 | 41.26243 | 2.11460 | 34903 ft | 421 kts | 182° |
| 2026-05-05 14:53 | 41.20421 | 2.12474 | 34911 ft | 422 kts | 181° |
| 2026-05-05 14:53 | 41.14605 | 2.13487 | 34911 ft | 422 kts | 181° |
| 2026-05-05 14:54 | 41.08782 | 2.14475 | 34895 ft | 421 kts | 182° |
| 2026-05-05 14:54 | 41.02967 | 2.15448 | 34900 ft | 422 kts | 182° |
| 2026-05-05 14:55 | 40.97140 | 2.16419 | 34900 ft | 422 kts | 182° |
| 2026-05-05 14:55 | 40.91412 | 2.17385 | 34877 ft | 400 kts | 182° |
| 2026-05-05 14:56 | 40.88708 | 2.17849 | 34851 ft | 387 kts | 182° |
| 2026-05-05 14:56 | 40.86047 | 2.18291 | 34889 ft | 385 kts | 182° |
| 2026-05-05 14:56 | 40.80745 | 2.19156 | 34901 ft | 387 kts | 182° |
| 2026-05-05 14:57 | 40.75395 | 2.20032 | 34905 ft | 388 kts | 182° |
| 2026-05-05 14:57 | 40.70036 | 2.20916 | 34896 ft | 389 kts | 182° |
| 2026-05-05 14:58 | 40.64667 | 2.21803 | 34896 ft | 389 kts | 182° |
| 2026-05-05 14:58 | 40.59293 | 2.22691 | 34900 ft | 389 kts | 182° |
| 2026-05-05 14:59 | 40.53928 | 2.23575 | 34898 ft | 388 kts | 182° |
| 2026-05-05 14:59 | 40.48570 | 2.24456 | 34782 ft | 389 kts | 182° |
| 2026-05-05 15:00 | 40.45877 | 2.24897 | 34320 ft | 389 kts | 182° |
| 2026-05-05 15:00 | 40.44069 | 2.25195 | 33937 ft | 387 kts | 182° |
| 2026-05-05 15:00 | 40.40571 | 2.25831 | 33434 ft | 382 kts | 180° |
| 2026-05-05 15:00 | 40.37981 | 2.26479 | 33068 ft | 377 kts | 179° |
| 2026-05-05 15:01 | 40.35422 | 2.27153 | 32684 ft | 373 kts | 179° |
| 2026-05-05 15:01 | 40.32886 | 2.27827 | 32256 ft | 370 kts | 179° |
| 2026-05-05 15:01 | 40.30384 | 2.28489 | 31851 ft | 366 kts | 179° |
| 2026-05-05 15:01 | 40.27895 | 2.29142 | 31417 ft | 363 kts | 179° |
| 2026-05-05 15:02 | 40.25435 | 2.29783 | 31055 ft | 359 kts | 179° |
| 2026-05-05 15:02 | 40.22995 | 2.30415 | 30623 ft | 356 kts | 179° |
| 2026-05-05 15:02 | 40.20577 | 2.31039 | 30248 ft | 353 kts | 179° |
| 2026-05-05 15:02 | 40.18174 | 2.31657 | 29871 ft | 351 kts | 179° |
| 2026-05-05 15:03 | 40.15790 | 2.32270 | 29450 ft | 348 kts | 179° |
| 2026-05-05 15:03 | 40.13427 | 2.32878 | 29040 ft | 344 kts | 179° |
| 2026-05-05 15:03 | 40.11089 | 2.33479 | 28629 ft | 341 kts | 179° |
| 2026-05-05 15:03 | 40.08772 | 2.34075 | 28245 ft | 338 kts | 179° |
| 2026-05-05 15:04 | 40.06474 | 2.34664 | 27837 ft | 335 kts | 179° |
| 2026-05-05 15:04 | 40.04190 | 2.35249 | 27454 ft | 333 kts | 179° |
| 2026-05-05 15:04 | 40.01928 | 2.35828 | 27058 ft | 331 kts | 179° |
| 2026-05-05 15:04 | 39.99671 | 2.36404 | 26667 ft | 330 kts | 179° |
| 2026-05-05 15:05 | 39.95158 | 2.37554 | 25932 ft | 336 kts | 179° |
| 2026-05-05 15:05 | 39.92828 | 2.38141 | 25551 ft | 346 kts | 178° |
| 2026-05-05 15:05 | 39.90461 | 2.38743 | 25149 ft | 347 kts | 178° |
| 2026-05-05 15:06 | 39.88101 | 2.39351 | 24753 ft | 345 kts | 178° |
| 2026-05-05 15:06 | 39.85754 | 2.39955 | 24328 ft | 342 kts | 178° |
| 2026-05-05 15:06 | 39.83424 | 2.40552 | 23948 ft | 341 kts | 178° |
| 2026-05-05 15:06 | 39.81100 | 2.41144 | 23549 ft | 340 kts | 178° |
| 2026-05-05 15:07 | 39.78780 | 2.41734 | 23100 ft | 339 kts | 178° |
| 2026-05-05 15:07 | 39.76474 | 2.42307 | 22639 ft | 334 kts | 180° |
| 2026-05-05 15:07 | 39.74233 | 2.42516 | 22262 ft | 322 kts | 189° |
| 2026-05-05 15:07 | 39.72036 | 2.42264 | 21848 ft | 315 kts | 194° |
| 2026-05-05 15:08 | 39.69871 | 2.41915 | 21462 ft | 312 kts | 195° |
| 2026-05-05 15:08 | 39.67724 | 2.41564 | 21087 ft | 310 kts | 195° |
| 2026-05-05 15:08 | 39.65590 | 2.41222 | 20723 ft | 308 kts | 194° |
| 2026-05-05 15:08 | 39.63470 | 2.40891 | 20363 ft | 306 kts | 194° |
| 2026-05-05 15:09 | 39.61358 | 2.40567 | 20009 ft | 305 kts | 194° |
| 2026-05-05 15:09 | 39.59254 | 2.40245 | 19638 ft | 304 kts | 194° |
| 2026-05-05 15:09 | 39.57163 | 2.39898 | 19283 ft | 300 kts | 198° |
| 2026-05-05 15:09 | 39.55222 | 2.39061 | 18918 ft | 291 kts | 210° |
| 2026-05-05 15:10 | 39.53471 | 2.37792 | 18563 ft | 288 kts | 219° |
| 2026-05-05 15:10 | 39.51932 | 2.36143 | 18221 ft | 287 kts | 225° |
| 2026-05-05 15:10 | 39.50445 | 2.34397 | 17828 ft | 289 kts | 225° |
| 2026-05-05 15:10 | 39.48958 | 2.32628 | 17446 ft | 291 kts | 225° |
| 2026-05-05 15:11 | 39.47462 | 2.30847 | 17074 ft | 292 kts | 225° |
| 2026-05-05 15:11 | 39.45962 | 2.29069 | 16708 ft | 292 kts | 225° |
| 2026-05-05 15:11 | 39.44462 | 2.27297 | 16345 ft | 293 kts | 225° |
| 2026-05-05 15:11 | 39.42956 | 2.25525 | 15976 ft | 291 kts | 225° |
| 2026-05-05 15:12 | 39.41463 | 2.23771 | 15612 ft | 288 kts | 225° |
| 2026-05-05 15:12 | 39.39983 | 2.22035 | 15261 ft | 286 kts | 224° |
| 2026-05-05 15:12 | 39.38517 | 2.20318 | 14912 ft | 283 kts | 224° |
| 2026-05-05 15:12 | 39.37067 | 2.18622 | 14572 ft | 281 kts | 224° |
| 2026-05-05 15:13 | 39.35620 | 2.16928 | 14231 ft | 280 kts | 224° |
| 2026-05-05 15:13 | 39.34179 | 2.15244 | 13889 ft | 279 kts | 224° |
| 2026-05-05 15:13 | 39.32742 | 2.13567 | 13510 ft | 278 kts | 224° |
| 2026-05-05 15:13 | 39.31331 | 2.11921 | 13150 ft | 277 kts | 224° |
| 2026-05-05 15:14 | 39.29887 | 2.10236 | 12789 ft | 276 kts | 224° |
| 2026-05-05 15:14 | 39.28489 | 2.08606 | 12453 ft | 275 kts | 224° |
| 2026-05-05 15:14 | 39.27052 | 2.06933 | 12111 ft | 274 kts | 224° |
| 2026-05-05 15:14 | 39.25656 | 2.05306 | 11780 ft | 274 kts | 224° |
| 2026-05-05 15:15 | 39.24239 | 2.03658 | 11448 ft | 274 kts | 224° |
| 2026-05-05 15:15 | 39.22823 | 2.02011 | 11110 ft | 274 kts | 224° |
| 2026-05-05 15:15 | 39.21386 | 2.00340 | 10770 ft | 275 kts | 224° |
| 2026-05-05 15:15 | 39.19964 | 1.98689 | 10429 ft | 274 kts | 223° |
| 2026-05-05 15:16 | 39.18569 | 1.97069 | 10099 ft | 273 kts | 223° |
| 2026-05-05 15:16 | 39.17160 | 1.95435 | 9832 ft | 270 kts | 223° |
| 2026-05-05 15:16 | 39.15781 | 1.93837 | 9563 ft | 264 kts | 223° |
| 2026-05-05 15:16 | 39.14397 | 1.92232 | 9107 ft | 268 kts | 223° |
| 2026-05-05 15:17 | 39.13029 | 1.90646 | 8745 ft | 268 kts | 223° |
| 2026-05-05 15:17 | 39.11648 | 1.89047 | 8398 ft | 267 kts | 224° |
| 2026-05-05 15:17 | 39.10271 | 1.87453 | 8052 ft | 265 kts | 224° |
| 2026-05-05 15:17 | 39.08901 | 1.85869 | 7723 ft | 264 kts | 223° |
| 2026-05-05 15:18 | 39.07537 | 1.84293 | 7407 ft | 263 kts | 224° |
| 2026-05-05 15:18 | 39.06189 | 1.82726 | 7111 ft | 260 kts | 226° |
| 2026-05-05 15:18 | 39.05152 | 1.80855 | 6806 ft | 257 kts | 244° |
| 2026-05-05 15:18 | 39.04384 | 1.78796 | 6613 ft | 251 kts | 244° |
| 2026-05-05 15:19 | 39.03624 | 1.76817 | 6432 ft | 246 kts | 243° |
| 2026-05-05 15:19 | 39.02841 | 1.74877 | 6144 ft | 245 kts | 243° |
| 2026-05-05 15:19 | 39.02042 | 1.72940 | 5823 ft | 245 kts | 243° |
| 2026-05-05 15:19 | 39.01238 | 1.71006 | 5501 ft | 246 kts | 243° |
| 2026-05-05 15:20 | 39.00432 | 1.69066 | 5177 ft | 246 kts | 243° |
| 2026-05-05 15:20 | 38.99897 | 1.67780 | 4960 ft | 246 kts | 243° |
| 2026-05-05 15:20 | 38.99079 | 1.65811 | 4628 ft | 247 kts | 243° |
| 2026-05-05 15:20 | 38.98282 | 1.63890 | 4305 ft | 247 kts | 243° |
| 2026-05-05 15:21 | 38.97473 | 1.61940 | 3987 ft | 246 kts | 243° |
| 2026-05-05 15:21 | 38.96678 | 1.60025 | 3655 ft | 239 kts | 243° |
| 2026-05-05 15:21 | 38.95906 | 1.58163 | 3341 ft | 233 kts | 244° |
| 2026-05-05 15:21 | 38.95156 | 1.56354 | 3033 ft | 227 kts | 244° |
| 2026-05-05 15:22 | 38.94426 | 1.54589 | 2747 ft | 221 kts | 244° |
| 2026-05-05 15:22 | 38.93721 | 1.52887 | 2462 ft | 209 kts | 244° |
| 2026-05-05 15:22 | 38.93064 | 1.51300 | 2186 ft | 194 kts | 244° |
| 2026-05-05 15:22 | 38.92456 | 1.49829 | 1933 ft | 181 kts | 243° |
| 2026-05-05 15:23 | 38.91888 | 1.48456 | 1707 ft | 166 kts | 243° |
| 2026-05-05 15:23 | 38.91373 | 1.47208 | 1511 ft | 151 kts | 243° |
| 2026-05-05 15:23 | 38.90900 | 1.46064 | 1294 ft | 141 kts | 243° |
| 2026-05-05 15:23 | 38.90448 | 1.44973 | 1110 ft | 136 kts | 243° |
| 2026-05-05 15:24 | 38.90007 | 1.43902 | 944 ft | 137 kts | 243° |
| 2026-05-05 15:24 | 38.89565 | 1.42832 | 767 ft | 135 kts | 242° |
| 2026-05-05 15:24 | 38.89128 | 1.41773 | 585 ft | 134 kts | 241° |
| 2026-05-05 15:24 | 38.88694 | 1.40723 | 418 ft | 133 kts | 242° |
| 2026-05-05 15:25 | 38.88263 | 1.39677 | 238 ft | 131 kts | 242° |
| 2026-05-05 15:25 | 38.87839 | 1.38652 | 58 ft | 129 kts | 242° |
| 2026-05-05 15:25 | 38.87440 | 1.37688 | 8 ft | 111 kts | 242° |
| 2026-05-05 15:25 | 38.87153 | 1.36993 | 9 ft | 67 kts | 242° |
| 2026-05-05 15:26 | 38.87101 | 1.36671 | 7 ft | 26 kts | 272° |
| 2026-05-05 15:26 | 38.87110 | 1.36580 | 7 ft | 9 kts | 298° |
| 2026-05-05 15:26 | 38.87161 | 1.36576 | 8 ft | 9 kts | 41° |
| 2026-05-05 15:26 | 38.87195 | 1.36649 | 8 ft | 12 kts | 63° |
| 2026-05-05 15:27 | 38.87242 | 1.36766 | 8 ft | 16 kts | 63° |
| 2026-05-05 15:27 | 38.87305 | 1.36852 | 8 ft | 12 kts | 10° |
| 2026-05-05 15:27 | 38.87378 | 1.36818 | 8 ft | 9 kts | 331° |
| 2026-05-05 15:27 | 38.87427 | 1.36803 | 7 ft | 8 kts | 15° |
| 2026-05-05 15:28 | 38.87468 | 1.36874 | 7 ft | 13 kts | 62° |
| 2026-05-05 15:28 | 38.87495 | 1.36938 | 7 ft | 4 kts | 62° |
| 2026-05-05 15:28 | 38.87520 | 1.36944 | 7 ft | 4 kts | 342° |
| 2026-05-05 15:28 | 38.87548 | 1.36928 | 7 ft | 3 kts | 333° |
| 2026-05-05 15:29 | 38.87559 | 1.36921 | 9 ft | 0 kts | 333° |